Aviation Digital Data Service (ADDS)

Output produced by METARs form (1911 UTC 25 June 2017)
found at http://www.aviationweather.gov/adds/metars/
 
LZKZ 251900Z 18008KT CAVOK 25/16 Q1010
TAF LZKZ 251700Z 2518/2618 20010KT 9999 FEW045 
     TEMPO 2518/2608 -SHRA FEW045CB BKN050 
     TEMPO 2518/2604 02015G25KT -TSRA SCT040CB BKN045 
     BECMG 2522/2600 34004KT 
     BECMG 2612/2614 21008KT
       
LZIB 251900Z 29014KT CAVOK 21/16 Q1012
TAF LZIB 251700Z 2518/2618 29010KT CAVOK 
     TEMPO 2608/2615 28015G25KT 9999 SCT045
       
TAF LZMC 251630Z 2518/2606 31010KT 9999 FEW010 SCT025 BKN070 
     TEMPO 2518/2522 27012G25KT 7000 -SHRA FEW035CB BKN045 
     BECMG 2521/2523 VRB04KT
       
LZPP 251900Z 34007KT 310V010 CAVOK 21/14 Q1012
TAF LZPP 251700Z 2518/2603 30012KT 9999 FEW045 SCT070 
     TEMPO 2518/2522 -SHRA FEW045CB SCT050 
     BECMG 2522/2600 26004KT
       
LZSL 251900Z 17005KT 120V240 9999 FEW060 BKN100 23/14 Q1010
TAF LZSL 251700Z 2518/2603 26012KT 9999 FEW055 SCT070 
     TEMPO 2518/2523 -SHRA FEW045CB SCT050 
     BECMG 2519/2521 35008KT
       
LZTT 251900Z 25008KT 9999 FEW066 22/12 Q1012
TAF LZTT 251700Z 2518/2618 27012KT 9999 SCT055 
     PROB40 
     TEMPO 2518/2604 -SHRA FEW040CB BKN050 
     BECMG 2604/2606 24004KT
       
LZZI 251900Z 22010KT 9999 -RA NSC 21/15 Q1011
TAF LZZI 251700Z 2518/2603 25010KT 9999 FEW050 SCT070 
     PROB30 
     TEMPO 2518/2522 -SHRA FEW045CB BKN050 
     BECMG 2522/2600 VRB02KT